Aviation Digital Data Service (ADDS)

Output produced by METARs form (0550 UTC 16 February 2019)
found at http://www.aviationweather.gov/metar/data/
 
METAR text: LEBZ 152000Z 04003KT 010V080 CAVOK 13/07 Q1023
Conditions at: LEBZ (TALAVERA AB/BADA, ES) observed 2000 UTC 15 February 2019
Temperature: 13.0°C (55°F)
Dewpoint: 7.0°C (45°F) [RH = 67%]
Pressure (altimeter): 30.21 inches Hg (1023.0 mb)
Winds: from the NE (40 degrees) at 3 MPH (3 knots; 1.5 m/s)
Visibility: 6 or more miles (10+ km)
Ceiling: ceiling and visibility are OK
Clouds: unknown
Weather: no significant weather observed at this time

METAR text: LEBZ 151900Z 06003KT CAVOK 14/06 Q1023
Conditions at: LEBZ (TALAVERA AB/BADA, ES) observed 1900 UTC 15 February 2019
Temperature: 14.0°C (57°F)
Dewpoint: 6.0°C (43°F) [RH = 58%]
Pressure (altimeter): 30.21 inches Hg (1023.0 mb)
Winds: from the ENE (60 degrees) at 3 MPH (3 knots; 1.5 m/s)
Visibility: 6 or more miles (10+ km)
Ceiling: ceiling and visibility are OK
Clouds: unknown
Weather: no significant weather observed at this time

METAR text: LEBZ 151800Z 07002KT CAVOK 16/06 Q1023
Conditions at: LEBZ (TALAVERA AB/BADA, ES) observed 1800 UTC 15 February 2019
Temperature: 16.0°C (61°F)
Dewpoint: 6.0°C (43°F) [RH = 51%]
Pressure (altimeter): 30.21 inches Hg (1023.0 mb)
Winds: from the ENE (70 degrees) at 2 MPH (2 knots; 1.0 m/s)
Visibility: 6 or more miles (10+ km)
Ceiling: ceiling and visibility are OK
Clouds: unknown
Weather: no significant weather observed at this time

METAR text: LEBZ 151700Z 07007KT CAVOK 19/05 Q1022
Conditions at: LEBZ (TALAVERA AB/BADA, ES) observed 1700 UTC 15 February 2019
Temperature: 19.0°C (66°F)
Dewpoint: 5.0°C (41°F) [RH = 40%]
Pressure (altimeter): 30.18 inches Hg (1022.0 mb)
Winds: from the ENE (70 degrees) at 8 MPH (7 knots; 3.6 m/s)
Visibility: 6 or more miles (10+ km)
Ceiling: ceiling and visibility are OK
Clouds: unknown
Weather: no significant weather observed at this time

METAR text: LEBZ 151600Z 05009KT CAVOK 19/05 Q1023
Conditions at: LEBZ (TALAVERA AB/BADA, ES) observed 1600 UTC 15 February 2019
Temperature: 19.0°C (66°F)
Dewpoint: 5.0°C (41°F) [RH = 40%]
Pressure (altimeter): 30.21 inches Hg (1023.0 mb)
Winds: from the NE (50 degrees) at 10 MPH (9 knots; 4.6 m/s)
Visibility: 6 or more miles (10+ km)
Ceiling: ceiling and visibility are OK
Clouds: unknown
Weather: no significant weather observed at this time

METAR text: LEBZ 151500Z 07008KT 030V100 CAVOK 20/04 Q1023
Conditions at: LEBZ (TALAVERA AB/BADA, ES) observed 1500 UTC 15 February 2019
Temperature: 20.0°C (68°F)
Dewpoint: 4.0°C (39°F) [RH = 35%]
Pressure (altimeter): 30.21 inches Hg (1023.0 mb)
Winds: from the ENE (70 degrees) at 9 MPH (8 knots; 4.1 m/s)
Visibility: 6 or more miles (10+ km)
Ceiling: ceiling and visibility are OK
Clouds: unknown
Weather: no significant weather observed at this time

METAR text: LEBZ 151400Z 08009KT 040V100 CAVOK 19/06 Q1024
Conditions at: LEBZ (TALAVERA AB/BADA, ES) observed 1400 UTC 15 February 2019
Temperature: 19.0°C (66°F)
Dewpoint: 6.0°C (43°F) [RH = 43%]
Pressure (altimeter): 30.24 inches Hg (1024.0 mb)
Winds: from the E (80 degrees) at 10 MPH (9 knots; 4.6 m/s)
Visibility: 6 or more miles (10+ km)
Ceiling: ceiling and visibility are OK
Clouds: unknown
Weather: no significant weather observed at this time

METAR text: LEBZ 151300Z 08008KT 040V110 CAVOK 17/07 Q1025
Conditions at: LEBZ (TALAVERA AB/BADA, ES) observed 1300 UTC 15 February 2019
Temperature: 17.0°C (63°F)
Dewpoint: 7.0°C (45°F) [RH = 52%]
Pressure (altimeter): 30.27 inches Hg (1025.0 mb)
Winds: from the E (80 degrees) at 9 MPH (8 knots; 4.1 m/s)
Visibility: 6 or more miles (10+ km)
Ceiling: ceiling and visibility are OK
Clouds: unknown
Weather: no significant weather observed at this time

METAR text: LEBZ 151200Z 07010KT 040V100 CAVOK 16/08 Q1026
Conditions at: LEBZ (TALAVERA AB/BADA, ES) observed 1200 UTC 15 February 2019
Temperature: 16.0°C (61°F)
Dewpoint: 8.0°C (46°F) [RH = 59%]
Pressure (altimeter): 30.30 inches Hg (1026.0 mb)
Winds: from the ENE (70 degrees) at 12 MPH (10 knots; 5.1 m/s)
Visibility: 6 or more miles (10+ km)
Ceiling: ceiling and visibility are OK
Clouds: unknown
Weather: no significant weather observed at this time

METAR text: LEBZ 151100Z 08010KT CAVOK 14/08 Q1027
Conditions at: LEBZ (TALAVERA AB/BADA, ES) observed 1100 UTC 15 February 2019
Temperature: 14.0°C (57°F)
Dewpoint: 8.0°C (46°F) [RH = 67%]
Pressure (altimeter): 30.32 inches Hg (1027.0 mb)
Winds: from the E (80 degrees) at 12 MPH (10 knots; 5.1 m/s)
Visibility: 6 or more miles (10+ km)
Ceiling: ceiling and visibility are OK
Clouds: unknown
Weather: no significant weather observed at this time

METAR text: LEBZ 151000Z 07010KT CAVOK 11/07 Q1027
Conditions at: LEBZ (TALAVERA AB/BADA, ES) observed 1000 UTC 15 February 2019
Temperature: 11.0°C (52°F)
Dewpoint: 7.0°C (45°F) [RH = 76%]
Pressure (altimeter): 30.32 inches Hg (1027.0 mb)
Winds: from the ENE (70 degrees) at 12 MPH (10 knots; 5.1 m/s)
Visibility: 6 or more miles (10+ km)
Ceiling: ceiling and visibility are OK
Clouds: unknown
Weather: no significant weather observed at this time

METAR text: LEBZ 150900Z 07006KT CAVOK 08/06 Q1027
Conditions at: LEBZ (TALAVERA AB/BADA, ES) observed 0900 UTC 15 February 2019
Temperature: 8.0°C (46°F)
Dewpoint: 6.0°C (43°F) [RH = 87%]
Pressure (altimeter): 30.32 inches Hg (1027.0 mb)
Winds: from the ENE (70 degrees) at 7 MPH (6 knots; 3.1 m/s)
Visibility: 6 or more miles (10+ km)
Ceiling: ceiling and visibility are OK
Clouds: unknown
Weather: no significant weather observed at this time

METAR text: LEBZ 150800Z 07006KT CAVOK 05/04 Q1026
Conditions at: LEBZ (TALAVERA AB/BADA, ES) observed 0800 UTC 15 February 2019
Temperature: 5.0°C (41°F)
Dewpoint: 4.0°C (39°F) [RH = 93%]
Pressure (altimeter): 30.30 inches Hg (1026.0 mb)
Winds: from the ENE (70 degrees) at 7 MPH (6 knots; 3.1 m/s)
Visibility: 6 or more miles (10+ km)
Ceiling: ceiling and visibility are OK
Clouds: unknown
Weather: no significant weather observed at this time

METAR text: LEBZ 150741Z 08007KT 8000 NSC 04/03 Q1026
Conditions at: LEBZ (TALAVERA AB/BADA, ES) observed 0741 UTC 15 February 2019
Temperature: 4.0°C (39°F)
Dewpoint: 3.0°C (37°F) [RH = 93%]
Pressure (altimeter): 30.30 inches Hg (1026.0 mb)
Winds: from the E (80 degrees) at 8 MPH (7 knots; 3.6 m/s)
Visibility: 5 miles ( 8 km)
Ceiling: at least 12,000 feet AGL
Clouds: sky clear below 12,000 feet AGL
Weather: no significant weather observed at this time

METAR text: LEBZ 150717Z 07006KT 4600 FU NSC 03/03 Q1026
Conditions at: LEBZ (TALAVERA AB/BADA, ES) observed 0717 UTC 15 February 2019
Temperature: 3.0°C (37°F)
Dewpoint: 3.0°C (37°F) [RH = 100%]
Pressure (altimeter): 30.30 inches Hg (1026.0 mb)
Winds: from the ENE (70 degrees) at 7 MPH (6 knots; 3.1 m/s)
Visibility: 2.86 miles (4.60 km)
Ceiling: at least 12,000 feet AGL
Clouds: sky clear below 12,000 feet AGL
Weather: FU  (smoke)

METAR text: LEBZ 150700Z 08006KT 9000 NSC 03/02 Q1026
Conditions at: LEBZ (TALAVERA AB/BADA, ES) observed 0700 UTC 15 February 2019
Temperature: 3.0°C (37°F)
Dewpoint: 2.0°C (36°F) [RH = 93%]
Pressure (altimeter): 30.30 inches Hg (1026.0 mb)
Winds: from the E (80 degrees) at 7 MPH (6 knots; 3.1 m/s)
Visibility: 6 miles ( 9 km)
Ceiling: at least 12,000 feet AGL
Clouds: sky clear below 12,000 feet AGL
Weather: no significant weather observed at this time

METAR text: LEBZ 150600Z 07005KT 8000 NSC 04/03 Q1026
Conditions at: LEBZ (TALAVERA AB/BADA, ES) observed 0600 UTC 15 February 2019
Temperature: 4.0°C (39°F)
Dewpoint: 3.0°C (37°F) [RH = 93%]
Pressure (altimeter): 30.30 inches Hg (1026.0 mb)
Winds: from the ENE (70 degrees) at 6 MPH (5 knots; 2.6 m/s)
Visibility: 5 miles ( 8 km)
Ceiling: at least 12,000 feet AGL
Clouds: sky clear below 12,000 feet AGL
Weather: no significant weather observed at this time

METAR text: LEBZ 142200Z VRB02KT CAVOK 09/06 Q1026
Conditions at: LEBZ (TALAVERA AB/BADA, ES) observed 2200 UTC 14 February 2019
Temperature: 9.0°C (48°F)
Dewpoint: 6.0°C (43°F) [RH = 81%]
Pressure (altimeter): 30.30 inches Hg (1026.0 mb)
Winds: variable direction winds at 2 MPH (2 knots; 1.0 m/s)
Visibility: 6 or more miles (10+ km)
Ceiling: ceiling and visibility are OK
Clouds: unknown
Weather: no significant weather observed at this time

METAR text: LEBZ 142100Z VRB02KT CAVOK 12/06 Q1026
Conditions at: LEBZ (TALAVERA AB/BADA, ES) observed 2100 UTC 14 February 2019
Temperature: 12.0°C (54°F)
Dewpoint: 6.0°C (43°F) [RH = 67%]
Pressure (altimeter): 30.30 inches Hg (1026.0 mb)
Winds: variable direction winds at 2 MPH (2 knots; 1.0 m/s)
Visibility: 6 or more miles (10+ km)
Ceiling: ceiling and visibility are OK
Clouds: unknown
Weather: no significant weather observed at this time

METAR text: LEBZ 142000Z 10005KT CAVOK 13/07 Q1025
Conditions at: LEBZ (TALAVERA AB/BADA, ES) observed 2000 UTC 14 February 2019
Temperature: 13.0°C (55°F)
Dewpoint: 7.0°C (45°F) [RH = 67%]
Pressure (altimeter): 30.27 inches Hg (1025.0 mb)
Winds: from the E (100 degrees) at 6 MPH (5 knots; 2.6 m/s)
Visibility: 6 or more miles (10+ km)
Ceiling: ceiling and visibility are OK
Clouds: unknown
Weather: no significant weather observed at this time

METAR text: LEBZ 141900Z 08005KT 060V120 CAVOK 14/07 Q1025
Conditions at: LEBZ (TALAVERA AB/BADA, ES) observed 1900 UTC 14 February 2019
Temperature: 14.0°C (57°F)
Dewpoint: 7.0°C (45°F) [RH = 63%]
Pressure (altimeter): 30.27 inches Hg (1025.0 mb)
Winds: from the E (80 degrees) at 6 MPH (5 knots; 2.6 m/s)
Visibility: 6 or more miles (10+ km)
Ceiling: ceiling and visibility are OK
Clouds: unknown
Weather: no significant weather observed at this time

METAR text: LEBZ 141800Z 07007KT CAVOK 16/07 Q1025
Conditions at: LEBZ (TALAVERA AB/BADA, ES) observed 1800 UTC 14 February 2019
Temperature: 16.0°C (61°F)
Dewpoint: 7.0°C (45°F) [RH = 55%]
Pressure (altimeter): 30.27 inches Hg (1025.0 mb)
Winds: from the ENE (70 degrees) at 8 MPH (7 knots; 3.6 m/s)
Visibility: 6 or more miles (10+ km)
Ceiling: ceiling and visibility are OK
Clouds: unknown
Weather: no significant weather observed at this time

Forecast for: LEBZ (TALAVERA AB/BADA, ES)
Text: TAF LEBZ 160500Z 1606/1706 07008KT CAVOK TX20/1615Z TN04/1706Z
Forecast period: 0600 UTC 16 February 2019 to 0600 UTC 17 February 2019
Forecast type: FROM: standard forecast or significant change
Winds: from the ENE (70 degrees) at 9 MPH (8 knots; 4.1 m/s)
Visibility: 6 or more miles 10+ km)
Ceiling: unknown
Clouds: missing
Weather: no significant weather forecast for this period